sensor_id;sensor_type;location;lat;lon;timestamp;P1;P2;P0
45112;PMS5003;30873;53.908;27.576;2023-08-07T00:01:01;26;24.5;16.9
45112;PMS5003;30873;53.908;27.576;2023-08-07T00:05:45;24.1;23.6;16.8
45112;PMS5003;30873;53.908;27.576;2023-08-07T00:10:45;25.8;24.3;17
45112;PMS5003;30873;53.908;27.576;2023-08-07T00:15:15;25;23.8;16.4
45112;PMS5003;30873;53.908;27.576;2023-08-07T00:21:01;24.2;23.2;16.1
45112;PMS5003;30873;53.908;27.576;2023-08-07T00:25:45;25.8;23.6;16.8
45112;PMS5003;30873;53.908;27.576;2023-08-07T00:30:15;25.2;23.6;16.2
45112;PMS5003;30873;53.908;27.576;2023-08-07T00:36:01;27.1;24.6;16.4
45112;PMS5003;30873;53.908;27.576;2023-08-07T00:41:01;28;23.8;16.1
45112;PMS5003;30873;53.908;27.576;2023-08-07T00:45:15;25.9;24.2;16.7
45112;PMS5003;30873;53.908;27.576;2023-08-07T00:50:15;26.3;25;17.3
45112;PMS5003;30873;53.908;27.576;2023-08-07T00:55:45;25.6;24.2;16.3
45112;PMS5003;30873;53.908;27.576;2023-08-07T01:00:45;24.3;23;15.8
45112;PMS5003;30873;53.908;27.576;2023-08-07T01:05:35;24.8;23.3;15.9
45112;PMS5003;30873;53.908;27.576;2023-08-07T01:10:15;26.4;24.8;16.5
45112;PMS5003;30873;53.908;27.576;2023-08-07T01:15:52;24.9;23.7;16.3
45112;PMS5003;30873;53.908;27.576;2023-08-07T01:20:30;25.6;24.1;16.6
45112;PMS5003;30873;53.908;27.576;2023-08-07T01:25:23;25.6;23.8;16.2
45112;PMS5003;30873;53.908;27.576;2023-08-07T01:31:03;25.8;23.5;16.1
45112;PMS5003;30873;53.908;27.576;2023-08-07T01:35:53;24.3;22.9;16
45112;PMS5003;30873;53.908;27.576;2023-08-07T01:41:01;26.6;24.6;16.8
45112;PMS5003;30873;53.908;27.576;2023-08-07T01:45:35;26.9;24.6;16.8
45112;PMS5003;30873;53.908;27.576;2023-08-07T01:50:52;27.8;25.3;16.8
45112;PMS5003;30873;53.908;27.576;2023-08-07T01:56:01;27;25;16.9
45112;PMS5003;30873;53.908;27.576;2023-08-07T02:00:27;26.4;24.8;16.6
45112;PMS5003;30873;53.908;27.576;2023-08-07T02:05:29;27.3;25.4;16.6
45112;PMS5003;30873;53.908;27.576;2023-08-07T02:10:51;26.1;24.6;16.2
45112;PMS5003;30873;53.908;27.576;2023-08-07T02:16:01;28.6;25.3;17.1
45112;PMS5003;30873;53.908;27.576;2023-08-07T02:20:15;27.5;24.6;16.8
45112;PMS5003;30873;53.908;27.576;2023-08-07T02:25:21;26.5;24.3;16.6
45112;PMS5003;30873;53.908;27.576;2023-08-07T02:31:01;26.3;23.9;16.9
45112;PMS5003;30873;53.908;27.576;2023-08-07T02:36:01;26.5;24.3;16.4
45112;PMS5003;30873;53.908;27.576;2023-08-07T02:40:35;26.8;25.3;16.6
45112;PMS5003;30873;53.908;27.576;2023-08-07T02:45:35;28.1;26.3;17.6
45112;PMS5003;30873;53.908;27.576;2023-08-07T02:51:01;29.8;26.5;17.5
45112;PMS5003;30873;53.908;27.576;2023-08-07T02:55:16;31;28;18.7
45112;PMS5003;30873;53.908;27.576;2023-08-07T03:00:29;33.1;29.9;19.1
45112;PMS5003;30873;53.908;27.576;2023-08-07T03:05:47;37;32.7;21.3
45112;PMS5003;30873;53.908;27.576;2023-08-07T03:10:37;36.9;32.6;20.5
45112;PMS5003;30873;53.908;27.576;2023-08-07T03:16:02;30.8;28.5;18.4
45112;PMS5003;30873;53.908;27.576;2023-08-07T03:20:15;29.3;27;17.3
45112;PMS5003;30873;53.908;27.576;2023-08-07T03:26:02;28;25.4;17.3
45112;PMS5003;30873;53.908;27.576;2023-08-07T03:30:35;26.8;25.7;17.6
45112;PMS5003;30873;53.908;27.576;2023-08-07T03:36:01;28.2;25.8;17.4
45112;PMS5003;30873;53.908;27.576;2023-08-07T03:40:43;27.6;25.6;16.9
45112;PMS5003;30873;53.908;27.576;2023-08-07T03:45:53;31.5;28.7;19.4
45112;PMS5003;30873;53.908;27.576;2023-08-07T03:50:17;28.5;26.9;17.9
45112;PMS5003;30873;53.908;27.576;2023-08-07T03:55:49;27.8;25.6;17.7
45112;PMS5003;30873;53.908;27.576;2023-08-07T04:00:15;27.4;25.9;17.5
45112;PMS5003;30873;53.908;27.576;2023-08-07T04:05:21;27.4;25.5;17.4
45112;PMS5003;30873;53.908;27.576;2023-08-07T04:11:02;31.3;27.6;19
45112;PMS5003;30873;53.908;27.576;2023-08-07T04:15:27;27.4;26.1;17.7
45112;PMS5003;30873;53.908;27.576;2023-08-07T04:21:02;28.2;25.8;17.3
45112;PMS5003;30873;53.908;27.576;2023-08-07T04:26:02;30.2;27.6;18.5
45112;PMS5003;30873;53.908;27.576;2023-08-07T04:30:44;28.6;27.4;18.4
45112;PMS5003;30873;53.908;27.576;2023-08-07T04:36:02;28.5;27;18.5
45112;PMS5003;30873;53.908;27.576;2023-08-07T04:40:15;26.8;25.7;18
45112;PMS5003;30873;53.908;27.576;2023-08-07T04:45:40;27.7;25.7;18.2
45112;PMS5003;30873;53.908;27.576;2023-08-07T04:50:43;26.5;24.9;17.1
45112;PMS5003;30873;53.908;27.576;2023-08-07T04:55:35;28.9;27.2;18.5
45112;PMS5003;30873;53.908;27.576;2023-08-07T05:00:30;29.3;27.7;19.3
45112;PMS5003;30873;53.908;27.576;2023-08-07T05:06:02;28;26.5;18.6
45112;PMS5003;30873;53.908;27.576;2023-08-07T05:10:15;27.3;25.5;17.3
45112;PMS5003;30873;53.908;27.576;2023-08-07T05:15:30;26;24.3;17.3
45112;PMS5003;30873;53.908;27.576;2023-08-07T05:20:45;28.5;26.3;18.4
45112;PMS5003;30873;53.908;27.576;2023-08-07T05:25:40;29.2;27.5;19.1
45112;PMS5003;30873;53.908;27.576;2023-08-07T05:30:46;27.7;26;18.2
45112;PMS5003;30873;53.908;27.576;2023-08-07T05:35:37;29.8;27.3;18.7
45112;PMS5003;30873;53.908;27.576;2023-08-07T05:40:39;29.2;27.8;18.7
45112;PMS5003;30873;53.908;27.576;2023-08-07T05:45:18;27.8;26.1;17.7
45112;PMS5003;30873;53.908;27.576;2023-08-07T05:50:27;27.6;26;18.4
45112;PMS5003;30873;53.908;27.576;2023-08-07T05:56:00;27.9;26;18.4
45112;PMS5003;30873;53.908;27.576;2023-08-07T06:00:38;28.3;26.5;18.5
45112;PMS5003;30873;53.908;27.576;2023-08-07T06:05:44;27.7;25.4;17.7
45112;PMS5003;30873;53.908;27.576;2023-08-07T06:10:46;30.3;27.4;20.1
45112;PMS5003;30873;53.908;27.576;2023-08-07T06:15:16;30.9;28.4;20.6
45112;PMS5003;30873;53.908;27.576;2023-08-07T06:21:00;30.9;29;20.6
45112;PMS5003;30873;53.908;27.576;2023-08-07T06:25:30;28.6;26.7;18.8
45112;PMS5003;30873;53.908;27.576;2023-08-07T06:30:36;29.1;27.6;19.1
45112;PMS5003;30873;53.908;27.576;2023-08-07T06:35:52;31;28.8;19.2
45112;PMS5003;30873;53.908;27.576;2023-08-07T06:40:30;26.3;24.5;17
45112;PMS5003;30873;53.908;27.576;2023-08-07T06:45:16;26.6;25.5;17
45112;PMS5003;30873;53.908;27.576;2023-08-07T06:50:34;26.4;24.8;17.3
45112;PMS5003;30873;53.908;27.576;2023-08-07T06:56:00;29.8;26;18
45112;PMS5003;30873;53.908;27.576;2023-08-07T07:01:02;24.7;23.5;16.3
45112;PMS5003;30873;53.908;27.576;2023-08-07T07:05:30;24.2;22;16.2
45112;PMS5003;30873;53.908;27.576;2023-08-07T07:10:26;25.5;24.1;16.5
45112;PMS5003;30873;53.908;27.576;2023-08-07T07:16:02;25.1;23.2;15.7
45112;PMS5003;30873;53.908;27.576;2023-08-07T07:20:36;27.1;25.1;16.9
45112;PMS5003;30873;53.908;27.576;2023-08-07T07:25:16;23.8;22.9;15.8
45112;PMS5003;30873;53.908;27.576;2023-08-07T07:30:46;25.5;23.5;16.5
45112;PMS5003;30873;53.908;27.576;2023-08-07T07:35:18;26.5;24.7;16.9
45112;PMS5003;30873;53.908;27.576;2023-08-07T07:41:00;25.8;24.2;17.2
45112;PMS5003;30873;53.908;27.576;2023-08-07T07:45:34;26.7;24.8;17.8
45112;PMS5003;30873;53.908;27.576;2023-08-07T07:51:02;24.7;23;16.4
45112;PMS5003;30873;53.908;27.576;2023-08-07T07:55:36;27.4;25.2;17.6
45112;PMS5003;30873;53.908;27.576;2023-08-07T08:01:02;27.2;25.4;18
45112;PMS5003;30873;53.908;27.576;2023-08-07T08:05:46;26.6;25.4;17.1
45112;PMS5003;30873;53.908;27.576;2023-08-07T08:10:50;28.2;26.1;17.2
45112;PMS5003;30873;53.908;27.576;2023-08-07T08:15:24;28.8;26.9;19.3
45112;PMS5003;30873;53.908;27.576;2023-08-07T08:20:18;27;25.3;17.9
45112;PMS5003;30873;53.908;27.576;2023-08-07T08:25:16;27.1;25.1;17.3
45112;PMS5003;30873;53.908;27.576;2023-08-07T08:30:30;27.3;25.2;17.2
45112;PMS5003;30873;53.908;27.576;2023-08-07T08:36:00;28.1;25.1;17.2
45112;PMS5003;30873;53.908;27.576;2023-08-07T08:40:30;29.1;27.1;18.3
45112;PMS5003;30873;53.908;27.576;2023-08-07T08:45:58;25.8;23.9;15.9
45112;PMS5003;30873;53.908;27.576;2023-08-07T08:50:58;26.9;25.2;16.9
45112;PMS5003;30873;53.908;27.576;2023-08-07T08:55:44;24.7;22.8;15
45112;PMS5003;30873;53.908;27.576;2023-08-07T09:00:44;21.1;19.7;13.2
45112;PMS5003;30873;53.908;27.576;2023-08-07T09:05:36;21.3;20.1;13.1
45112;PMS5003;30873;53.908;27.576;2023-08-07T09:10:58;21.4;19.8;13.1
45112;PMS5003;30873;53.908;27.576;2023-08-07T09:15:46;24.8;23.4;15.2
45112;PMS5003;30873;53.908;27.576;2023-08-07T09:20:36;33.2;29.2;20.8
45112;PMS5003;30873;53.908;27.576;2023-08-07T09:25:34;27.2;25.5;17.5
45112;PMS5003;30873;53.908;27.576;2023-08-07T09:30:36;27.9;26.2;17.4
45112;PMS5003;30873;53.908;27.576;2023-08-07T09:35:24;29;27.2;17.8
45112;PMS5003;30873;53.908;27.576;2023-08-07T09:40:30;27.7;26.3;17.2
45112;PMS5003;30873;53.908;27.576;2023-08-07T09:46:06;27.3;25.5;16.3
45112;PMS5003;30873;53.908;27.576;2023-08-07T09:50:46;33.6;29.5;19.9
45112;PMS5003;30873;53.908;27.576;2023-08-07T09:55:58;26.6;25.2;16.4
45112;PMS5003;30873;53.908;27.576;2023-08-07T10:00:36;25.8;24;15.7
45112;PMS5003;30873;53.908;27.576;2023-08-07T10:05:16;26.1;24.5;16
45112;PMS5003;30873;53.908;27.576;2023-08-07T10:10:30;27.4;25.4;17.4
45112;PMS5003;30873;53.908;27.576;2023-08-07T10:15:24;26.9;25.4;17.8
45112;PMS5003;30873;53.908;27.576;2023-08-07T10:20:30;28.7;25.6;17.2
45112;PMS5003;30873;53.908;27.576;2023-08-07T10:25:50;27.5;25.6;17.2
45112;PMS5003;30873;53.908;27.576;2023-08-07T10:30:58;23;21.3;14.4
45112;PMS5003;30873;53.908;27.576;2023-08-07T10:35:34;25.2;22.6;14.9
45112;PMS5003;30873;53.908;27.576;2023-08-07T10:40:28;23.8;22.2;15.3
45112;PMS5003;30873;53.908;27.576;2023-08-07T10:46:02;21.5;20;12.9
45112;PMS5003;30873;53.908;27.576;2023-08-07T10:50:50;17;15.7;9.9
45112;PMS5003;30873;53.908;27.576;2023-08-07T10:55:47;17.6;15.4;10.9
45112;PMS5003;30873;53.908;27.576;2023-08-07T11:00:50;18.2;17.1;11.4
45112;PMS5003;30873;53.908;27.576;2023-08-07T11:05:50;19.8;16.9;11.7
45112;PMS5003;30873;53.908;27.576;2023-08-07T11:10:16;21.2;18.3;12.5
45112;PMS5003;30873;53.908;27.576;2023-08-07T11:15:16;25.2;22.4;14.4
45112;PMS5003;30873;53.908;27.576;2023-08-07T11:20:58;22.8;20.5;12.8
45112;PMS5003;30873;53.908;27.576;2023-08-07T11:25:56;14.6;13.4;8
45112;PMS5003;30873;53.908;27.576;2023-08-07T11:30:36;19.9;17.7;11.5
45112;PMS5003;30873;53.908;27.576;2023-08-07T11:35:34;19.3;17;11.8
45112;PMS5003;30873;53.908;27.576;2023-08-07T11:41:00;14.2;13.4;8.9
45112;PMS5003;30873;53.908;27.576;2023-08-07T11:45:24;12.3;11;6.3
45112;PMS5003;30873;53.908;27.576;2023-08-07T11:50:32;10.8;10.2;7
45112;PMS5003;30873;53.908;27.576;2023-08-07T11:55:47;10.8;9.7;6.4
45112;PMS5003;30873;53.908;27.576;2023-08-07T12:00:50;10;8.1;5.5
45112;PMS5003;30873;53.908;27.576;2023-08-07T12:06:02;8.8;7.9;5.1
45112;PMS5003;30873;53.908;27.576;2023-08-07T12:10:16;8.6;8.3;5.2
45112;PMS5003;30873;53.908;27.576;2023-08-07T12:16:00;8.5;8.2;5.3
45112;PMS5003;30873;53.908;27.576;2023-08-07T12:20:17;9.6;9.1;6.2
45112;PMS5003;30873;53.908;27.576;2023-08-07T12:25:18;10.3;9.6;6.3
45112;PMS5003;30873;53.908;27.576;2023-08-07T12:30:42;13.3;12.1;8.6
45112;PMS5003;30873;53.908;27.576;2023-08-07T12:35:18;12.6;11.6;7.6
45112;PMS5003;30873;53.908;27.576;2023-08-07T12:40:44;13;11.2;7.7
45112;PMS5003;30873;53.908;27.576;2023-08-07T12:45:40;13.3;13.1;9.3
45112;PMS5003;30873;53.908;27.576;2023-08-07T12:50:30;13.7;12.4;8.6
45112;PMS5003;30873;53.908;27.576;2023-08-07T12:55:16;15.4;14.1;9.7
45112;PMS5003;30873;53.908;27.576;2023-08-07T13:00:54;16.3;15.3;10.4
45112;PMS5003;30873;53.908;27.576;2023-08-07T13:05:28;14.1;12.6;8.9
45112;PMS5003;30873;53.908;27.576;2023-08-07T13:10:56;15;14.2;10
45112;PMS5003;30873;53.908;27.576;2023-08-07T13:15:56;14.2;13.1;8.7
45112;PMS5003;30873;53.908;27.576;2023-08-07T13:20:58;12.2;12;8.4
45112;PMS5003;30873;53.908;27.576;2023-08-07T13:25:16;14.7;13.9;10.2
45112;PMS5003;30873;53.908;27.576;2023-08-07T13:30:30;16.5;15.8;11.2
45112;PMS5003;30873;53.908;27.576;2023-08-07T13:35:44;15.8;15;10.1
45112;PMS5003;30873;53.908;27.576;2023-08-07T13:40:44;14.8;14.1;10.2
45112;PMS5003;30873;53.908;27.576;2023-08-07T13:45:34;14.5;13.6;9.3
45112;PMS5003;30873;53.908;27.576;2023-08-07T13:50:30;16.6;15.6;11.2
45112;PMS5003;30873;53.908;27.576;2023-08-07T13:55:48;18.2;17.8;11.3
45112;PMS5003;30873;53.908;27.576;2023-08-07T14:00:22;19.7;18.5;11.2
45112;PMS5003;30873;53.908;27.576;2023-08-07T14:05:24;21.4;19.4;11.4
45112;PMS5003;30873;53.908;27.576;2023-08-07T14:10:56;18.9;17.1;11.2
45112;PMS5003;30873;53.908;27.576;2023-08-07T14:15:44;18.7;17.3;11.2
45112;PMS5003;30873;53.908;27.576;2023-08-07T14:20:56;21.7;19.9;13.1
45112;PMS5003;30873;53.908;27.576;2023-08-07T14:25:30;20.3;19.2;12.6
45112;PMS5003;30873;53.908;27.576;2023-08-07T14:30:20;19;17.7;11.6
45112;PMS5003;30873;53.908;27.576;2023-08-07T14:35:16;18;16.9;11.2
45112;PMS5003;30873;53.908;27.576;2023-08-07T14:40:28;18.5;17;11.1
45112;PMS5003;30873;53.908;27.576;2023-08-07T14:45:34;17.5;16.6;10.7
45112;PMS5003;30873;53.908;27.576;2023-08-07T14:50:46;19.2;17.5;11.1
45112;PMS5003;30873;53.908;27.576;2023-08-07T14:55:56;20.8;18.7;11.1
45112;PMS5003;30873;53.908;27.576;2023-08-07T15:00:16;19.8;18.2;11.9
45112;PMS5003;30873;53.908;27.576;2023-08-07T15:05:16;22.3;20.9;14.2
45112;PMS5003;30873;53.908;27.576;2023-08-07T15:10:56;22.9;21.3;14.7
45112;PMS5003;30873;53.908;27.576;2023-08-07T15:15:16;25.4;23.2;16.2
45112;PMS5003;30873;53.908;27.576;2023-08-07T15:20:30;20.7;18.9;12.7
45112;PMS5003;30873;53.908;27.576;2023-08-07T15:25:42;22.2;20.6;13.6
45112;PMS5003;30873;53.908;27.576;2023-08-07T15:30:46;19.9;18;12.2
45112;PMS5003;30873;53.908;27.576;2023-08-07T15:35:30;16.2;15;9.9
45112;PMS5003;30873;53.908;27.576;2023-08-07T15:40:46;17.7;16.1;10.8
45112;PMS5003;30873;53.908;27.576;2023-08-07T15:45:56;19.6;17;11.6
45112;PMS5003;30873;53.908;27.576;2023-08-07T15:50:56;14.5;12.8;8.7
45112;PMS5003;30873;53.908;27.576;2023-08-07T15:55:16;13.2;12;7.7
45112;PMS5003;30873;53.908;27.576;2023-08-07T16:00:16;5.1;4.8;3.2
45112;PMS5003;30873;53.908;27.576;2023-08-07T16:05:58;4.7;4.6;4.1
45112;PMS5003;30873;53.908;27.576;2023-08-07T16:10:58;5.2;4.7;4
45112;PMS5003;30873;53.908;27.576;2023-08-07T16:15:30;0.7;0.5;0.2
45112;PMS5003;30873;53.908;27.576;2023-08-07T16:20:42;0.6;0.4;0
45112;PMS5003;30873;53.908;27.576;2023-08-07T16:25:48;0.8;0.7;0.3
45112;PMS5003;30873;53.908;27.576;2023-08-07T16:30:56;0.8;0.6;0.2
45112;PMS5003;30873;53.908;27.576;2023-08-07T16:35:26;0.7;0.6;0.6
45112;PMS5003;30873;53.908;27.576;2023-08-07T16:40:58;1.2;1;0.3
45112;PMS5003;30873;53.908;27.576;2023-08-07T16:45:16;0.8;0.8;0.5
45112;PMS5003;30873;53.908;27.576;2023-08-07T16:50:58;0.9;0.9;0.4
45112;PMS5003;30873;53.908;27.576;2023-08-07T16:55:32;0.9;0.7;0.1
45112;PMS5003;30873;53.908;27.576;2023-08-07T17:00:32;0.7;0.7;0.4
45112;PMS5003;30873;53.908;27.576;2023-08-07T17:05:56;0.7;0.7;0.2
45112;PMS5003;30873;53.908;27.576;2023-08-07T17:10:44;0.8;0.7;0.2
45112;PMS5003;30873;53.908;27.576;2023-08-07T17:15:30;0.7;0.3;0.2
45112;PMS5003;30873;53.908;27.576;2023-08-07T17:20:50;1.1;0.8;0.4
45112;PMS5003;30873;53.908;27.576;2023-08-07T17:26:00;0.4;0.4;0
45112;PMS5003;30873;53.908;27.576;2023-08-07T17:30:46;0.6;0.6;0
45112;PMS5003;30873;53.908;27.576;2023-08-07T17:35:30;0.9;0.8;0.5
45112;PMS5003;30873;53.908;27.576;2023-08-07T17:41:00;0.3;0.3;0.1
45112;PMS5003;30873;53.908;27.576;2023-08-07T17:46:00;0.3;0.3;0.1
45112;PMS5003;30873;53.908;27.576;2023-08-07T17:50:22;0.7;0.7;0.1
45112;PMS5003;30873;53.908;27.576;2023-08-07T17:55:22;0.6;0.5;0.1
45112;PMS5003;30873;53.908;27.576;2023-08-07T18:00:46;0.4;0.1;0
45112;PMS5003;30873;53.908;27.576;2023-08-07T18:05:46;0.4;0.3;0
45112;PMS5003;30873;53.908;27.576;2023-08-07T18:10:36;0.7;0.7;0.2
45112;PMS5003;30873;53.908;27.576;2023-08-07T18:15:34;0.4;0.1;0
45112;PMS5003;30873;53.908;27.576;2023-08-07T18:20:50;0.3;0.2;0.1
45112;PMS5003;30873;53.908;27.576;2023-08-07T18:25:30;0.2;0.2;0
45112;PMS5003;30873;53.908;27.576;2023-08-07T18:30:30;0.5;0.2;0
45112;PMS5003;30873;53.908;27.576;2023-08-07T18:36:00;0.4;0.3;0.1
45112;PMS5003;30873;53.908;27.576;2023-08-07T18:40:46;0.5;0.1;0
45112;PMS5003;30873;53.908;27.576;2023-08-07T18:46:00;0.4;0.2;0.2
45112;PMS5003;30873;53.908;27.576;2023-08-07T18:50:50;0.2;0.1;0
45112;PMS5003;30873;53.908;27.576;2023-08-07T18:55:28;0.9;0.1;0
45112;PMS5003;30873;53.908;27.576;2023-08-07T19:00:16;0.2;0.1;0
45112;PMS5003;30873;53.908;27.576;2023-08-07T19:05:30;0.3;0.1;0.1
45112;PMS5003;30873;53.908;27.576;2023-08-07T19:10:36;0.3;0.1;0
45112;PMS5003;30873;53.908;27.576;2023-08-07T19:15:50;0.4;0.2;0
45112;PMS5003;30873;53.908;27.576;2023-08-07T19:20:52;0.1;0.1;0
45112;PMS5003;30873;53.908;27.576;2023-08-07T19:25:28;0.1;0;0
45112;PMS5003;30873;53.908;27.576;2023-08-07T19:30:22;0.2;0.2;0
45112;PMS5003;30873;53.908;27.576;2023-08-07T19:35:18;0.9;0.8;0.1
45112;PMS5003;30873;53.908;27.576;2023-08-07T19:40:26;1;0.4;0.1
45112;PMS5003;30873;53.908;27.576;2023-08-07T19:45:16;1.5;1;0.1
45112;PMS5003;30873;53.908;27.576;2023-08-07T19:50:51;1.7;1.3;0.6
45112;PMS5003;30873;53.908;27.576;2023-08-07T19:55:50;1;0.8;0.1
45112;PMS5003;30873;53.908;27.576;2023-08-07T20:00:22;1;0.8;0.4
45112;PMS5003;30873;53.908;27.576;2023-08-07T20:05:50;0.6;0.6;0.1
45112;PMS5003;30873;53.908;27.576;2023-08-07T20:11:00;0.9;0.8;0.2
45112;PMS5003;30873;53.908;27.576;2023-08-07T20:15:30;0.9;0.9;0.2
45112;PMS5003;30873;53.908;27.576;2023-08-07T20:20:40;1.2;1.1;0.3
45112;PMS5003;30873;53.908;27.576;2023-08-07T20:25:34;1.7;1.5;0.8
45112;PMS5003;30873;53.908;27.576;2023-08-07T20:31:00;1.6;1;0.8
45112;PMS5003;30873;53.908;27.576;2023-08-07T20:35:36;1.6;1.4;0.7
45112;PMS5003;30873;53.908;27.576;2023-08-07T20:40:16;1.6;1.3;0.6
45112;PMS5003;30873;53.908;27.576;2023-08-07T20:45:44;2.7;2.1;1.1
45112;PMS5003;30873;53.908;27.576;2023-08-07T20:50:36;2.4;2.1;1.6
45112;PMS5003;30873;53.908;27.576;2023-08-07T20:55:46;2.6;2.3;1.2
45112;PMS5003;30873;53.908;27.576;2023-08-07T21:00:44;3.7;3.7;1.7
45112;PMS5003;30873;53.908;27.576;2023-08-07T21:05:16;3;2.8;1.7
45112;PMS5003;30873;53.908;27.576;2023-08-07T21:10:22;4;3.4;2.1
45112;PMS5003;30873;53.908;27.576;2023-08-07T21:16:00;3.5;3.5;2.3
45112;PMS5003;30873;53.908;27.576;2023-08-07T21:20:24;5.6;4.6;3.1
45112;PMS5003;30873;53.908;27.576;2023-08-07T21:26:00;5.6;4.9;2.8
45112;PMS5003;30873;53.908;27.576;2023-08-07T21:31:00;6.2;5.6;3.6
45112;PMS5003;30873;53.908;27.576;2023-08-07T21:35:45;6.1;5.8;3.3
45112;PMS5003;30873;53.908;27.576;2023-08-07T21:40:46;6.4;5.8;3.7
45112;PMS5003;30873;53.908;27.576;2023-08-07T21:45:36;5.8;5.3;3.2
45112;PMS5003;30873;53.908;27.576;2023-08-07T21:50:58;5.4;5;3.2
45112;PMS5003;30873;53.908;27.576;2023-08-07T21:55:46;7;5.8;3.6
45112;PMS5003;30873;53.908;27.576;2023-08-07T22:00:50;5.7;5.4;3.2
45112;PMS5003;30873;53.908;27.576;2023-08-07T22:06:00;5.6;4.6;3
45112;PMS5003;30873;53.908;27.576;2023-08-07T22:11:00;4.7;4.4;2.7
45112;PMS5003;30873;53.908;27.576;2023-08-07T22:15:24;4.7;4.3;2.8
45112;PMS5003;30873;53.908;27.576;2023-08-07T22:20:30;4.8;4;2.6
45112;PMS5003;30873;53.908;27.576;2023-08-07T22:26:00;4.6;3.7;2.4
45112;PMS5003;30873;53.908;27.576;2023-08-07T22:30:46;3.6;3.5;2.4
45112;PMS5003;30873;53.908;27.576;2023-08-07T22:35:36;3.2;3.1;2.2
45112;PMS5003;30873;53.908;27.576;2023-08-07T22:40:28;3.8;3.2;2.2
45112;PMS5003;30873;53.908;27.576;2023-08-07T22:45:16;4.2;3.8;2.3
45112;PMS5003;30873;53.908;27.576;2023-08-07T22:50:22;4.4;3.4;2.5
45112;PMS5003;30873;53.908;27.576;2023-08-07T22:55:30;3.4;3.3;2.1
45112;PMS5003;30873;53.908;27.576;2023-08-07T23:01:00;4.9;4.1;3.1
45112;PMS5003;30873;53.908;27.576;2023-08-07T23:05:46;6;5.4;3.5
45112;PMS5003;30873;53.908;27.576;2023-08-07T23:11:00;5.8;4.9;3.4
45112;PMS5003;30873;53.908;27.576;2023-08-07T23:15:16;4.6;4.1;2.8
45112;PMS5003;30873;53.908;27.576;2023-08-07T23:21:00;4.9;4.4;2.6
45112;PMS5003;30873;53.908;27.576;2023-08-07T23:25:22;3.9;3.7;2.8
45112;PMS5003;30873;53.908;27.576;2023-08-07T23:30:22;4.6;4;2.9
45112;PMS5003;30873;53.908;27.576;2023-08-07T23:35:36;4.6;3.9;2.8
45112;PMS5003;30873;53.908;27.576;2023-08-07T23:40:50;5;4.1;2.9
45112;PMS5003;30873;53.908;27.576;2023-08-07T23:46:00;5;4.2;3
45112;PMS5003;30873;53.908;27.576;2023-08-07T23:50:34;5;4.5;2.9
45112;PMS5003;30873;53.908;27.576;2023-08-07T23:55:50;5.1;4.6;3
